Time;durP1;ratioP1;P1;durP2;ratioP2;P2;SDS_P1;SDS_P2;PMS_P1;PMS_P2;Temp;Humidity;BMP_temperature;BMP_pressure;BME280_temperature;BME280_humidity;BME280_pressure;Samples;Min_cycle;Max_cycle;Signal;HPM_P1;HPM_P2
2021/08/18 00:01:59;;;;;;;0.98;0.50;;;;;;;19.36;51.93;99449.50;4975335;28;20183;-61
2021/08/18 00:04:25;;;;;;;1.08;0.50;;;;;;;19.34;52.14;99448.88;4974836;28;20043;-61
2021/08/18 00:06:50;;;;;;;1.88;0.80;;;;;;;19.32;52.02;99445.53;4974321;28;20034;-61
2021/08/18 00:09:15;;;;;;;1.55;0.68;;;;;;;19.36;51.74;99451.38;4975348;28;20034;-61
2021/08/18 00:11:41;;;;;;;1.63;0.70;;;;;;;19.33;52.29;99444.47;4974689;28;20491;-61
2021/08/18 00:14:06;;;;;;;1.50;0.50;;;;;;;19.34;52.01;99446.13;4974765;28;20069;-60
2021/08/18 00:16:32;;;;;;;1.58;0.75;;;;;;;19.33;52.61;99439.00;4974513;28;20163;-61
2021/08/18 00:18:57;;;;;;;1.67;0.68;;;;;;;19.30;52.89;99444.84;4974671;28;20109;-61
2021/08/18 00:21:24;;;;;;;4.32;0.75;;;;;;;19.31;51.95;99441.09;4974679;28;20030;-61
2021/08/18 00:23:51;;;;;;;2.20;0.52;;;;;;;19.27;52.36;99445.28;5007482;28;20454;-61
2021/08/18 00:26:16;;;;;;;2.45;0.55;;;;;;;19.27;51.82;99449.91;5036965;28;20029;-61
2021/08/18 00:28:42;;;;;;;1.73;0.43;;;;;;;19.27;51.93;99445.28;5035443;28;20385;-61
2021/08/18 00:31:11;;;;;;;1.95;0.95;;;;;;;19.29;53.17;99447.81;5035411;28;20053;-61
2021/08/18 00:33:36;;;;;;;1.25;0.60;;;;;;;19.29;52.43;99443.19;5035660;28;20052;-60
2021/08/18 00:36:02;;;;;;;3.17;0.68;;;;;;;19.28;51.77;99449.69;5035167;28;20098;-60
2021/08/18 00:38:27;;;;;;;1.63;0.50;;;;;;;19.28;52.63;99449.69;5035181;28;20104;-60
2021/08/18 00:40:52;;;;;;;1.63;0.30;;;;;;;19.30;52.71;99444.03;5035065;28;20029;-61
2021/08/18 00:43:18;;;;;;;0.70;0.60;;;;;;;19.35;52.49;99441.53;5034866;28;20484;-61
2021/08/18 00:45:44;;;;;;;1.85;0.57;;;;;;;19.34;52.23;99431.69;5035334;28;20036;-61
2021/08/18 00:48:09;;;;;;;1.17;0.55;;;;;;;19.31;52.86;99432.91;5034841;28;20459;-61
2021/08/18 00:50:34;;;;;;;2.10;0.68;;;;;;;19.34;52.21;99428.94;5034870;28;20061;-61
2021/08/18 00:53:00;;;;;;;1.48;0.50;;;;;;;19.34;52.50;99424.34;5034799;28;20036;-60
2021/08/18 00:55:51;;;;;;;1.60;0.68;;;;;;;19.31;52.60;99415.72;5035202;28;20025;-59
2021/08/18 00:58:16;;;;;;;2.50;1.00;;;;;;;19.31;53.04;99408.38;5036758;28;20053;-61
2021/08/18 01:00:42;;;;;;;1.30;0.45;;;;;;;19.34;53.12;99399.81;5035088;28;20030;-60
2021/08/18 01:03:07;;;;;;;2.03;0.50;;;;;;;19.32;52.64;99388.28;5034991;28;20450;-60
2021/08/18 01:05:33;;;;;;;1.73;0.40;;;;;;;19.31;52.75;99392.03;5033493;28;20028;-60
2021/08/18 01:08:01;;;;;;;1.88;0.50;;;;;;;19.32;52.66;99382.84;5034602;28;20415;-60
2021/08/18 01:10:32;;;;;;;2.47;0.57;;;;;;;19.30;53.37;99367.72;5034497;28;20413;-61
2021/08/18 01:12:59;;;;;;;1.30;0.80;;;;;;;19.30;52.30;99376.75;5034449;28;20474;-61
2021/08/18 01:15:27;;;;;;;1.30;0.50;;;;;;;19.30;52.42;99367.72;5034776;28;20029;-61
2021/08/18 01:17:54;;;;;;;0.75;0.47;;;;;;;19.27;52.36;99374.44;5034205;28;20033;-61
2021/08/18 01:20:23;;;;;;;0.80;0.50;;;;;;;19.28;53.29;99381.56;5034278;28;20025;-61
2021/08/18 01:23:28;;;;;;;1.95;0.55;;;;;;;19.29;52.15;99377.78;5034805;28;20032;-59
2021/08/18 01:25:54;;;;;;;0.75;0.50;;;;;;;19.29;51.85;99372.34;5036656;28;20045;-60
2021/08/18 01:28:23;;;;;;;1.75;0.55;;;;;;;19.27;53.11;99374.44;5034394;28;20021;-61
2021/08/18 01:30:49;;;;;;;1.33;0.40;;;;;;;19.29;52.61;99372.34;5033053;28;20438;-61
2021/08/18 01:33:16;;;;;;;0.32;0.22;;;;;;;19.30;52.64;99367.72;5034058;28;20105;-61
2021/08/18 01:35:47;;;;;;;1.50;0.80;;;;;;;19.30;52.56;99368.56;5034207;28;20029;-61
2021/08/18 01:38:15;;;;;;;1.67;0.52;;;;;;;19.29;53.02;99361.44;5033885;28;20032;-61
2021/08/18 01:40:44;;;;;;;2.45;0.60;;;;;;;19.27;52.85;99358.09;5034225;28;20021;-61
2021/08/18 01:43:10;;;;;;;2.65;0.60;;;;;;;19.30;52.72;99352.22;5034068;28;20477;-61
2021/08/18 01:45:42;;;;;;;1.75;0.52;;;;;;;19.24;52.56;99348.47;5034224;28;20029;-61
2021/08/18 01:48:13;;;;;;;1.33;0.47;;;;;;;19.24;53.06;99348.47;5034113;28;20025;-59
2021/08/18 01:50:40;;;;;;;0.88;0.55;;;;;;;19.27;52.33;99341.75;5035412;28;20104;-61
2021/08/18 01:53:06;;;;;;;0.52;0.40;;;;;;;19.22;52.85;99341.56;5033875;28;20035;-60
2021/08/18 01:55:32;;;;;;;1.10;0.65;;;;;;;19.25;52.79;99343.84;5052153;22;20052;-59
2021/08/18 01:57:59;;;;;;;1.63;0.70;;;;;;;19.22;52.96;99336.94;5114421;28;20036;-60
2021/08/18 02:00:26;;;;;;;0.98;0.40;;;;;;;19.24;52.42;99342.19;5092826;28;20024;-61
2021/08/18 02:02:52;;;;;;;1.48;0.60;;;;;;;19.24;52.57;99342.19;5093883;28;20365;-61
2021/08/18 02:05:19;;;;;;;1.25;0.30;;;;;;;19.26;53.12;99336.53;5093863;28;20044;-61
2021/08/18 02:07:44;;;;;;;1.45;0.40;;;;;;;19.22;52.85;99333.41;5093205;28;20547;-61
2021/08/18 02:10:16;;;;;;;0.82;0.40;;;;;;;19.22;51.79;99327.94;5093715;28;20020;-61
2021/08/18 02:12:42;;;;;;;0.47;0.30;;;;;;;19.20;52.29;99324.59;5093629;28;20037;-61
2021/08/18 02:15:27;;;;;;;2.42;0.45;;;;;;;19.26;52.74;99328.34;5094493;28;20070;-59
2021/08/18 02:17:53;;;;;;;0.57;0.47;;;;;;;19.21;52.42;99324.38;5096465;28;20028;-61
2021/08/18 02:20:22;;;;;;;0.90;0.47;;;;;;;19.22;52.57;99322.50;5093689;28;20023;-61
2021/08/18 02:22:48;;;;;;;3.65;1.08;;;;;;;19.15;52.55;99318.97;5104774;28;20467;-60
2021/08/18 02:25:13;;;;;;;1.30;0.38;;;;;;;19.18;53.10;99313.09;5111280;28;20068;-60
2021/08/18 02:27:39;;;;;;;1.90;0.40;;;;;;;19.17;52.86;99320.41;5113536;28;20019;-59
2021/08/18 02:30:06;;;;;;;1.05;0.45;;;;;;;19.20;52.13;99319.16;5113605;28;20015;-60
2021/08/18 02:32:32;;;;;;;0.73;0.40;;;;;;;19.18;52.78;99313.09;5113762;28;20031;-61
2021/08/18 02:34:57;;;;;;;0.80;0.57;;;;;;;19.15;52.42;99316.25;5113672;28;20039;-60
2021/08/18 02:37:23;;;;;;;1.85;0.60;;;;;;;19.15;52.46;99305.34;5113831;28;20027;-61
2021/08/18 02:39:48;;;;;;;1.38;0.40;;;;;;;19.17;53.03;99304.06;5113797;28;20043;-60
2021/08/18 02:42:14;;;;;;;0.75;0.45;;;;;;;19.15;52.76;99310.78;5113749;28;20024;-61
2021/08/18 02:44:39;;;;;;;1.75;0.40;;;;;;;19.18;52.42;99305.75;5111316;28;20475;-61
2021/08/18 02:47:05;;;;;;;0.60;0.30;;;;;;;19.16;52.69;99301.56;5092912;28;20392;-61
2021/08/18 02:49:42;;;;;;;1.27;0.40;;;;;;;19.13;52.25;99301.97;5095414;28;20059;-59
2021/08/18 02:52:08;;;;;;;1.60;0.20;;;;;;;19.15;52.71;99234.53;5077731;28;20564;-60
2021/08/18 02:54:34;;;;;;;1.13;0.40;;;;;;;19.13;52.05;99242.03;5092916;28;20032;-61
2021/08/18 02:56:59;;;;;;;1.35;0.30;;;;;;;19.16;52.16;99219.84;5093026;28;20040;-60
2021/08/18 02:59:24;;;;;;;1.40;0.52;;;;;;;19.19;51.85;99317.47;5093159;28;20024;-60
2021/08/18 03:01:50;;;;;;;0.70;0.40;;;;;;;19.17;51.75;99292.34;5092851;28;20020;-60
2021/08/18 03:04:15;;;;;;;1.20;0.60;;;;;;;19.14;52.13;99284.56;5092995;28;20028;-60
2021/08/18 03:06:41;;;;;;;1.33;0.50;;;;;;;19.19;52.15;99290.25;5092978;28;20028;-59
2021/08/18 03:09:07;;;;;;;1.25;0.35;;;;;;;19.19;51.79;99285.63;5092858;28;20032;-60
2021/08/18 03:11:32;;;;;;;1.42;0.40;;;;;;;19.17;52.55;99289.63;5093318;28;20024;-60
2021/08/18 03:13:57;;;;;;;1.55;0.40;;;;;;;19.15;53.02;99273.50;5092922;28;20032;-61
2021/08/18 03:16:23;;;;;;;1.90;0.43;;;;;;;19.16;51.68;99263.44;5092900;28;20361;-61
2021/08/18 03:18:48;;;;;;;2.20;0.40;;;;;;;19.17;52.71;99265.09;5093395;28;20024;-61
2021/08/18 03:21:14;;;;;;;2.55;0.50;;;;;;;19.17;52.49;99263.22;5097612;28;20028;-59
2021/08/18 03:23:41;;;;;;;2.67;0.70;;;;;;;19.13;52.13;99250.22;5100576;28;20024;-58
2021/08/18 03:26:06;;;;;;;0.63;0.38;;;;;;;19.12;51.94;99256.72;5097025;28;20054;-60
2021/08/18 03:28:32;;;;;;;1.52;0.75;;;;;;;19.14;51.64;99247.28;5096752;28;20464;-61
2021/08/18 03:30:57;;;;;;;0.82;0.32;;;;;;;19.13;51.80;99233.88;5096576;28;20028;-61
2021/08/18 03:33:22;;;;;;;1.27;0.30;;;;;;;19.16;52.81;99244.38;5096506;28;20034;-60
2021/08/18 03:35:48;;;;;;;2.28;0.57;;;;;;;19.15;51.61;99242.69;5096591;28;20420;-61
2021/08/18 03:38:13;;;;;;;0.73;0.25;;;;;;;19.13;52.06;99244.78;5096730;28;20105;-61
2021/08/18 03:40:39;;;;;;;1.63;0.30;;;;;;;19.13;51.77;99242.03;5096639;28;20016;-61
2021/08/18 03:43:04;;;;;;;1.65;0.50;;;;;;;19.13;52.27;99242.03;5096537;28;20052;-61
2021/08/18 03:45:30;;;;;;;2.60;0.30;;;;;;;19.11;52.29;99245.00;5096326;28;20020;-61
2021/08/18 03:47:55;;;;;;;2.17;0.40;;;;;;;19.10;52.32;99237.03;5096124;28;20114;-61
2021/08/18 03:50:20;;;;;;;1.10;0.35;;;;;;;19.13;51.94;99231.16;5096109;28;20039;-61
2021/08/18 03:52:46;;;;;;;1.95;0.63;;;;;;;19.13;51.00;99231.16;5096407;28;20461;-61
2021/08/18 03:55:13;;;;;;;2.33;0.65;;;;;;;19.10;52.49;99228.88;5095008;28;20028;-61
2021/08/18 03:57:38;;;;;;;0.75;0.32;;;;;;;19.12;51.97;99229.47;5096307;28;20028;-60
2021/08/18 04:00:05;;;;;;;1.75;0.55;;;;;;;19.13;52.39;99222.97;5095941;28;20024;-61
2021/08/18 04:02:30;;;;;;;1.20;0.35;;;;;;;19.79;49.74;99217.22;5095871;28;20092;-60
2021/08/18 04:04:55;;;;;;;1.13;0.60;;;;;;;20.26;48.70;99215.00;5096011;28;20435;-60
2021/08/18 04:07:21;;;;;;;0.73;0.20;;;;;;;20.51;48.94;99207.69;5095882;28;20052;-60
2021/08/18 04:09:46;;;;;;;1.15;0.20;;;;;;;20.66;47.38;99199.16;5095838;28;20468;-60
2021/08/18 04:12:12;;;;;;;1.08;0.30;;;;;;;20.79;47.63;99206.34;5092626;28;20025;-61
2021/08/18 04:14:37;;;;;;;0.60;0.25;;;;;;;20.87;46.88;99203.31;5075311;28;20032;-61
2021/08/18 04:17:02;;;;;;;0.50;0.20;;;;;;;21.01;47.53;99194.75;5075704;28;20032;-61
2021/08/18 04:19:47;;;;;;;1.42;0.35;;;;;;;21.05;47.82;99192.41;5083640;28;20380;-59
2021/08/18 04:22:12;;;;;;;0.95;0.17;;;;;;;21.16;47.32;99193.50;5078743;28;20364;-61
2021/08/18 04:24:38;;;;;;;1.27;0.20;;;;;;;21.21;47.92;99189.03;5074989;28;20039;-61
2021/08/18 04:27:04;;;;;;;0.90;0.20;;;;;;;21.23;47.62;99192.38;5075917;28;20024;-61
2021/08/18 04:29:29;;;;;;;0.73;0.20;;;;;;;21.27;47.97;99190.03;5095034;28;20016;-61
2021/08/18 04:31:57;;;;;;;1.48;0.20;;;;;;;21.30;48.37;99184.94;5094930;28;20030;-61
2021/08/18 04:34:22;;;;;;;0.20;0.20;;;;;;;21.38;47.26;99186.53;5095633;28;20476;-61
2021/08/18 04:36:48;;;;;;;4.25;0.40;;;;;;;21.39;48.75;99184.66;5095463;28;20026;-61
2021/08/18 04:39:13;;;;;;;1.55;0.47;;;;;;;21.44;48.35;99177.41;5095450;28;20027;-61
2021/08/18 04:41:38;;;;;;;2.00;0.43;;;;;;;21.46;48.21;99179.91;5095248;28;20594;-61
2021/08/18 04:44:03;;;;;;;0.47;0.30;;;;;;;21.44;48.13;99171.09;5094922;28;20038;-61
2021/08/18 04:46:29;;;;;;;1.95;0.15;;;;;;;21.45;49.50;99172.78;5077583;28;20075;-61
2021/08/18 04:48:54;;;;;;;1.60;0.20;;;;;;;21.48;nan;99164.09;5074626;28;20046;-60
2021/08/18 04:51:20;;;;;;;0.57;0.22;;;;;;;21.54;49.10;99157.72;5077516;28;20021;-59
2021/08/18 04:53:45;;;;;;;0.55;0.32;;;;;;;21.49;49.24;99141.16;5082284;28;20488;-60
2021/08/18 04:56:11;;;;;;;0.30;0.10;;;;;;;21.47;49.47;99146.03;5078940;28;20044;-60
2021/08/18 04:58:37;;;;;;;1.13;0.30;;;;;;;21.55;49.09;99138.34;5095264;28;20016;-60
2021/08/18 05:01:02;;;;;;;0.50;0.22;;;;;;;21.60;49.27;99134.91;5094126;28;20097;-60
2021/08/18 05:03:27;;;;;;;2.08;0.30;;;;;;;21.60;49.56;99126.72;5094433;28;20032;-61
2021/08/18 05:05:53;;;;;;;0.15;0.10;;;;;;;21.59;48.91;99127.78;5094714;28;20465;-62
2021/08/18 05:08:18;;;;;;;1.15;0.15;;;;;;;21.63;49.61;99134.44;5093429;28;20531;-61
2021/08/18 05:10:44;;;;;;;0.43;0.10;;;;;;;21.62;49.44;99138.25;5093946;28;20038;-61
2021/08/18 05:13:09;;;;;;;2.25;0.40;;;;;;;21.67;48.88;99124.72;5093439;28;20020;-62
2021/08/18 05:15:35;;;;;;;0.73;0.25;;;;;;;21.66;49.69;99127.66;5093992;28;20106;-61
2021/08/18 05:18:00;;;;;;;0.43;0.10;;;;;;;21.65;49.59;99134.19;5093823;28;20047;-61
2021/08/18 05:20:25;;;;;;;0.82;0.20;;;;;;;21.69;49.80;99143.63;5087722;28;20044;-61
2021/08/18 05:22:51;;;;;;;1.52;0.28;;;;;;;21.69;49.72;99133.53;5092781;28;20069;-61
2021/08/18 05:25:17;;;;;;;4.03;0.57;;;;;;;21.69;49.58;99130.78;5088874;28;20024;-62
2021/08/18 05:27:52;;;;;;;2.10;0.75;;;;;;;21.64;48.91;99125.16;5091671;28;20058;-60
2021/08/18 05:30:18;;;;;;;1.70;0.20;;;;;;;21.61;50.31;99123.75;5089692;28;20028;-61
2021/08/18 05:32:44;;;;;;;1.65;0.30;;;;;;;21.53;48.25;99109.59;5093930;28;20042;-60
2021/08/18 05:35:14;;;;;;;4.68;0.35;;;;;;;21.43;48.72;99117.50;5090732;28;20115;-62
2021/08/18 05:37:39;;;;;;;0.98;0.35;;;;;;;21.32;48.08;99117.22;5092379;28;20108;-61
2021/08/18 05:40:06;;;;;;;1.13;0.20;;;;;;;21.25;47.66;99105.56;5082310;28;20443;-61
2021/08/18 05:42:31;;;;;;;1.60;0.38;;;;;;;21.22;47.25;99100.53;5077485;28;20020;-61
2021/08/18 05:44:57;;;;;;;1.33;0.30;;;;;;;21.24;46.86;99106.63;5084137;28;20035;-61
2021/08/18 05:47:22;;;;;;;1.13;0.20;;;;;;;21.22;48.19;99106.00;5075121;28;20024;-61
2021/08/18 05:49:49;;;;;;;1.38;0.30;;;;;;;21.25;47.43;99093.78;5090370;28;20016;-60
2021/08/18 05:52:48;;;;;;;0.95;0.35;;;;;;;21.19;47.69;99091.97;5096637;28;20024;-59
2021/08/18 05:55:13;;;;;;;1.52;0.30;;;;;;;21.34;47.96;99086.13;5080933;28;20500;-60
2021/08/18 05:57:39;;;;;;;1.08;0.30;;;;;;;21.29;48.21;99084.88;5090297;28;20050;-60
2021/08/18 06:00:05;;;;;;;2.58;0.20;;;;;;;21.28;47.26;99083.22;5077682;28;20012;-59
2021/08/18 06:02:31;;;;;;;1.25;0.17;;;;;;;21.26;48.72;99074.44;5093473;28;20122;-62
2021/08/18 06:04:56;;;;;;;1.23;0.20;;;;;;;21.26;46.92;99057.19;5081664;28;20103;-61
2021/08/18 06:07:22;;;;;;;0.85;0.40;;;;;;;21.23;47.45;99063.09;5086438;28;20039;-61
2021/08/18 06:09:47;;;;;;;2.08;0.47;;;;;;;21.26;47.03;99063.50;5092416;28;20024;-61
2021/08/18 06:12:12;;;;;;;1.70;0.43;;;;;;;21.30;47.32;99061.13;5092894;28;20476;-61
2021/08/18 06:14:38;;;;;;;0.68;0.30;;;;;;;21.24;47.24;99065.63;5093728;28;20468;-61
2021/08/18 06:17:03;;;;;;;0.30;0.10;;;;;;;21.28;48.15;99053.16;5092621;28;20050;-61
2021/08/18 06:19:29;;;;;;;1.15;0.30;;;;;;;21.28;46.49;99061.38;5095281;28;20024;-61
2021/08/18 06:21:54;;;;;;;0.57;0.28;;;;;;;21.31;46.98;99055.44;5093276;28;20032;-61
2021/08/18 06:24:29;;;;;;;1.35;0.20;;;;;;;21.31;46.68;99055.44;5093337;28;20020;-61
2021/08/18 06:26:56;;;;;;;0.47;0.13;;;;;;;21.29;46.89;99052.09;5093443;28;20484;-61
2021/08/18 06:29:22;;;;;;;1.20;0.40;;;;;;;21.35;46.69;99044.06;5093744;28;20032;-60
2021/08/18 06:31:48;;;;;;;2.40;0.15;;;;;;;21.35;46.98;99049.53;5093075;28;20028;-60
2021/08/18 06:34:14;;;;;;;0.68;0.20;;;;;;;21.36;47.09;99045.72;5093395;28;20024;-60
2021/08/18 06:36:39;;;;;;;1.00;0.30;;;;;;;21.37;47.72;99036.44;5093475;28;20024;-60
2021/08/18 06:39:04;;;;;;;0.40;0.20;;;;;;;21.37;46.82;99036.44;5092001;28;20480;-60
2021/08/18 06:41:30;;;;;;;2.05;0.30;;;;;;;21.34;47.71;99042.38;5092704;28;20369;-61
2021/08/18 06:43:55;;;;;;;2.20;0.40;;;;;;;21.35;47.23;99044.06;5092665;28;20038;-61
2021/08/18 06:46:20;;;;;;;1.40;0.20;;;;;;;21.31;47.30;99039.03;5092300;28;20032;-61
2021/08/18 06:48:46;;;;;;;0.60;0.10;;;;;;;21.41;46.17;99033.00;5092860;28;20383;-62
2021/08/18 06:51:12;;;;;;;1.08;0.25;;;;;;;21.39;46.37;99028.84;5092984;28;20035;-61
2021/08/18 06:53:37;;;;;;;1.00;0.20;;;;;;;21.40;47.41;99030.50;5097006;28;20024;-61
2021/08/18 06:56:03;;;;;;;0.55;0.10;;;;;;;21.34;47.31;99034.19;5099334;28;20370;-61
2021/08/18 06:58:28;;;;;;;0.90;0.10;;;;;;;21.32;46.84;99029.75;5100223;28;20468;-61
2021/08/18 07:00:53;;;;;;;0.63;0.20;;;;;;;21.36;46.92;99034.78;5098431;28;20023;-61
2021/08/18 07:03:19;;;;;;;0.50;0.30;;;;;;;21.39;47.15;99037.03;5099745;28;20024;-61
2021/08/18 07:05:44;;;;;;;1.77;0.30;;;;;;;21.42;46.93;99029.19;5099681;28;20486;-61
2021/08/18 07:08:09;;;;;;;1.95;0.47;;;;;;;21.43;46.49;99030.84;5099901;28;20036;-61
2021/08/18 07:10:35;;;;;;;0.55;0.15;;;;;;;21.40;47.61;99031.34;5100005;28;20061;-61
2021/08/18 07:13:00;;;;;;;1.02;0.30;;;;;;;21.41;47.32;99026.69;5089835;28;20028;-61
2021/08/18 07:15:25;;;;;;;1.05;0.30;;;;;;;21.40;47.14;99030.50;5079456;28;20377;-61
2021/08/18 07:17:51;;;;;;;0.88;0.20;;;;;;;21.46;47.33;99029.56;5079525;28;20104;-61
2021/08/18 07:20:16;;;;;;;1.23;0.25;;;;;;;21.39;47.39;99037.03;5079582;28;20062;-61
2021/08/18 07:22:41;;;;;;;1.70;0.30;;;;;;;21.37;46.96;99030.97;5079410;28;20020;-61
2021/08/18 07:25:07;;;;;;;0.70;0.20;;;;;;;21.40;46.82;99025.03;5079374;28;20035;-60
2021/08/18 07:27:33;;;;;;;0.88;0.35;;;;;;;21.40;47.15;99014.09;5079509;28;20037;-60
2021/08/18 07:29:58;;;;;;;0.57;0.32;;;;;;;21.40;46.12;99014.09;5078896;28;20028;-61
2021/08/18 07:32:24;;;;;;;0.80;0.30;;;;;;;21.43;47.67;99013.63;5079249;28;20042;-61
2021/08/18 07:34:49;;;;;;;1.80;0.77;;;;;;;21.42;47.21;99015.53;5078928;28;20025;-61
2021/08/18 07:37:17;;;;;;;0.40;0.13;;;;;;;21.48;47.75;99005.53;5079044;28;20036;-61
2021/08/18 07:39:42;;;;;;;0.82;0.30;;;;;;;21.45;48.49;99011.50;5079177;28;20036;-61
2021/08/18 07:42:08;;;;;;;5.00;0.30;;;;;;;21.58;47.99;99003.06;5084529;28;20027;-60
2021/08/18 07:44:33;;;;;;;1.25;0.03;;;;;;;21.48;48.50;98991.88;5082152;28;20240;-61
2021/08/18 07:46:59;;;;;;;0.75;0.10;;;;;;;21.47;48.00;98991.03;5078837;28;20028;-61
2021/08/18 07:49:24;;;;;;;3.30;0.25;;;;;;;21.57;48.86;98988.56;5082769;28;20020;-61
2021/08/18 07:51:49;;;;;;;0.63;0.13;;;;;;;21.52;48.13;98991.19;5098868;28;20142;-61
2021/08/18 07:54:14;;;;;;;1.75;0.30;;;;;;;21.59;48.42;98985.59;5101052;28;20375;-59
2021/08/18 07:56:40;;;;;;;2.00;0.10;;;;;;;21.61;49.01;98972.50;5099928;28;20391;-61
2021/08/18 07:59:05;;;;;;;0.10;0.10;;;;;;;21.62;49.63;98979.66;5098641;28;20016;-61
2021/08/18 08:01:30;;;;;;;0.40;0.17;;;;;;;21.63;49.25;98981.31;5095670;28;20020;-61
2021/08/18 08:03:56;;;;;;;0.73;0.28;;;;;;;21.69;48.57;98979.56;5094305;28;20432;-61
2021/08/18 08:06:21;;;;;;;1.00;0.20;;;;;;;21.61;49.79;98972.50;5074825;28;20473;-61
2021/08/18 08:08:46;;;;;;;1.10;0.22;;;;;;;21.63;48.40;98970.38;5075649;28;20034;-60
2021/08/18 08:11:12;;;;;;;1.58;0.20;;;;;;;21.58;48.81;98962.91;5075700;28;20021;-61
2021/08/18 08:13:37;;;;;;;0.40;0.10;;;;;;;21.65;48.80;98959.19;5079075;28;20028;-62
2021/08/18 08:16:03;;;;;;;0.10;0.00;;;;;;;21.73;48.54;98950.66;5074640;28;20026;-61
2021/08/18 08:18:28;;;;;;;0.90;0.20;;;;;;;21.70;48.97;98943.75;5087423;28;20012;-61
2021/08/18 08:20:54;;;;;;;0.20;0.10;;;;;;;21.67;48.89;98949.72;5077492;28;20108;-61
2021/08/18 08:23:19;;;;;;;0.70;0.10;;;;;;;21.69;48.24;98947.56;5088853;28;20066;-62
2021/08/18 08:25:45;;;;;;;0.70;0.10;;;;;;;21.67;48.86;98938.78;5089688;28;20027;-61
2021/08/18 08:28:10;;;;;;;1.15;0.43;;;;;;;21.70;49.94;98942.94;5090873;28;20020;-59
2021/08/18 08:30:36;;;;;;;1.23;0.28;;;;;;;21.74;49.06;98939.47;5077425;28;20051;-61
2021/08/18 08:33:02;;;;;;;0.95;0.28;;;;;;;21.74;49.15;98947.69;5087650;28;20380;-61
2021/08/18 08:35:28;;;;;;;1.30;0.17;;;;;;;21.76;48.71;98953.72;5095474;28;20016;-61
2021/08/18 08:37:54;;;;;;;0.57;0.10;;;;;;;21.64;48.92;98944.69;5095272;28;20464;-61
2021/08/18 08:40:20;;;;;;;1.27;0.52;;;;;;;21.65;48.69;98943.63;5095635;28;20041;-60
2021/08/18 08:42:45;;;;;;;0.82;0.28;;;;;;;21.71;49.05;98939.13;5095576;28;20099;-61
2021/08/18 08:45:11;;;;;;;1.33;0.40;;;;;;;21.72;48.69;98947.09;5082616;28;20034;-61
2021/08/18 08:47:37;;;;;;;1.15;0.30;;;;;;;21.72;49.48;98943.53;5075011;28;20050;-62
2021/08/18 08:50:04;;;;;;;0.90;0.32;;;;;;;21.74;49.10;98934.00;5082265;28;20375;-62
2021/08/18 08:52:30;;;;;;;1.80;0.30;;;;;;;21.69;48.69;98955.78;5095570;28;20066;-63
2021/08/18 08:54:56;;;;;;;0.25;0.08;;;;;;;21.68;49.35;98940.44;5094812;28;20035;-62
2021/08/18 08:57:21;;;;;;;0.73;0.20;;;;;;;21.75;48.94;98934.84;5096188;28;20048;-62
2021/08/18 08:59:47;;;;;;;0.88;0.10;;;;;;;21.67;49.52;98938.78;5095237;28;20451;-66
2021/08/18 09:02:13;;;;;;;1.20;0.10;;;;;;;21.77;49.03;98916.28;5093198;28;20030;-66
2021/08/18 09:04:46;;;;;;;2.95;0.28;;;;;;;21.70;48.07;98921.88;5095649;28;20079;-66
2021/08/18 09:07:16;;;;;;;2.13;0.57;;;;;;;21.68;47.25;98921.28;5093482;28;20388;-66
2021/08/18 09:09:49;;;;;;;1.45;0.20;;;;;;;21.62;48.78;98914.03;5094727;28;20410;-66
2021/08/18 09:12:16;;;;;;;0.95;0.30;;;;;;;21.64;48.50;98906.41;5094499;28;20468;-65
2021/08/18 09:14:43;;;;;;;1.50;0.40;;;;;;;21.62;48.03;98908.56;5101372;28;20028;-66
2021/08/18 09:17:32;;;;;;;1.95;0.30;;;;;;;21.57;47.55;98905.72;5093627;28;20372;-67
2021/08/18 09:20:18;;;;;;;0.47;0.30;;;;;;;21.57;46.85;98901.09;5094545;28;20035;-66
2021/08/18 09:22:51;;;;;;;1.75;0.20;;;;;;;21.58;47.45;98901.91;5094496;28;20032;-66
2021/08/18 09:25:38;;;;;;;1.33;0.20;;;;;;;21.60;47.08;98903.34;5097020;28;20046;-66
2021/08/18 09:28:04;;;;;;;2.50;0.40;;;;;;;21.54;47.44;98898.81;5092051;28;20349;-65
2021/08/18 09:30:56;;;;;;;1.27;0.10;;;;;;;21.56;47.19;98893.94;5093524;28;20023;-66
2021/08/18 09:33:22;;;;;;;2.00;0.30;;;;;;;21.53;46.83;98893.59;5074423;28;20028;-66
2021/08/18 09:35:56;;;;;;;1.52;0.38;;;;;;;21.57;46.30;98900.25;5074021;28;20085;-67
2021/08/18 09:38:25;;;;;;;2.85;0.35;;;;;;;21.52;47.13;98900.16;5074215;28;20103;-67
2021/08/18 09:40:51;;;;;;;1.40;0.30;;;;;;;21.50;46.38;98899.53;5077292;28;20078;-67
2021/08/18 09:47:06;;;;;;;2.15;0.17;;;;;;;21.47;46.08;98898.09;5038715;28;20072;-62
2021/08/18 09:49:33;;;;;;;1.38;0.22;;;;;;;21.49;46.42;98887.75;5031758;28;20049;-62
2021/08/18 09:51:59;;;;;;;2.95;0.50;;;;;;;21.50;46.80;98894.06;5031558;28;20030;-63
2021/08/18 09:54:35;;;;;;;1.42;0.40;;;;;;;21.49;46.87;98881.47;5031969;28;20045;-62
2021/08/18 09:57:06;;;;;;;0.75;0.20;;;;;;;21.56;46.70;98895.84;5017961;28;20146;-61
2021/08/18 09:59:32;;;;;;;0.47;0.10;;;;;;;21.51;46.77;98895.75;5015197;28;20045;-62
2021/08/18 10:01:58;;;;;;;0.52;0.20;;;;;;;21.52;46.31;98887.31;5031392;28;20056;-61
2021/08/18 10:04:24;;;;;;;2.20;0.30;;;;;;;21.49;46.26;98884.19;5031369;28;20389;-59
2021/08/18 10:06:50;;;;;;;0.85;0.20;;;;;;;21.49;46.35;98892.41;5031335;28;20537;-62
2021/08/18 10:09:16;;;;;;;1.92;0.50;;;;;;;21.46;46.09;98892.88;5031504;28;20158;-61
2021/08/18 10:11:42;;;;;;;1.48;0.30;;;;;;;21.53;46.26;98893.59;5031686;28;20540;-61
2021/08/18 10:14:09;;;;;;;1.23;0.52;;;;;;;21.48;46.03;98896.19;5030919;28;20086;-62
2021/08/18 10:16:34;;;;;;;0.10;0.10;;;;;;;21.50;46.39;98878.50;5031316;28;20374;-61
2021/08/18 10:19:05;;;;;;;0.90;0.35;;;;;;;21.44;46.04;98884.09;5031005;28;20036;-61
2021/08/18 10:21:32;;;;;;;2.30;0.25;;;;;;;21.48;46.12;98874.31;5047593;28;20040;-61
2021/08/18 10:24:03;;;;;;;0.88;0.20;;;;;;;21.48;45.24;98885.25;5053022;28;20027;-61
2021/08/18 10:26:31;;;;;;;1.35;0.40;;;;;;;21.52;45.74;98884.56;5047957;28;20447;-61
2021/08/18 10:29:05;;;;;;;3.08;0.40;;;;;;;21.49;46.43;98881.47;5043901;28;20147;-61
2021/08/18 10:34:33;;;;;;;0.55;0.20;;;;;;;21.50;45.73;98883.97;5037168;28;20021;-60
2021/08/18 10:37:02;;;;;;;0.40;0.10;;;;;;;21.43;46.68;98887.88;5051102;28;20017;-61
2021/08/18 10:39:38;;;;;;;1.52;0.40;;;;;;;21.51;46.60;98895.75;5052208;28;20032;-61
2021/08/18 10:42:13;;;;;;;1.58;0.22;;;;;;;21.46;45.56;98899.19;5052264;28;20051;-61
2021/08/18 10:44:52;;;;;;;1.10;0.25;;;;;;;21.41;45.68;98896.34;5052093;28;20373;-61
2021/08/18 10:47:33;;;;;;;2.03;0.50;;;;;;;21.48;46.36;98898.94;5043983;28;20026;-62
2021/08/18 10:50:23;;;;;;;0.50;0.10;;;;;;;21.46;46.58;98903.81;5047114;28;20033;-61
2021/08/18 10:52:50;;;;;;;0.95;0.43;;;;;;;21.46;46.39;98909.28;5037244;28;20029;-61
2021/08/18 10:55:24;;;;;;;1.95;0.40;;;;;;;21.48;46.62;98907.97;5053422;28;20032;-61
2021/08/18 10:57:56;;;;;;;1.98;0.40;;;;;;;21.45;46.21;98913.91;5071304;28;20040;-62
2021/08/18 11:00:39;;;;;;;2.15;0.20;;;;;;;21.49;46.11;98917.00;5073079;28;20082;-61
2021/08/18 11:03:14;;;;;;;1.02;0.30;;;;;;;21.47;46.48;98911.78;5072910;28;20029;-62
2021/08/18 11:05:39;;;;;;;1.83;0.43;;;;;;;21.47;45.99;98924.59;5073005;28;20036;-61
2021/08/18 11:08:10;;;;;;;0.73;0.17;;;;;;;21.47;46.00;98911.78;5072601;28;20036;-62
2021/08/18 11:10:56;;;;;;;0.73;0.20;;;;;;;21.45;45.90;98924.84;5072537;28;20403;-61
2021/08/18 11:13:38;;;;;;;0.70;0.30;;;;;;;21.47;46.17;98932.81;5010867;28;20046;-62
2021/08/18 11:16:15;;;;;;;0.73;0.32;;;;;;;21.46;45.98;98942.91;5010771;28;20112;-61
2021/08/18 11:18:47;;;;;;;1.20;0.20;;;;;;;21.48;44.99;98940.78;5010555;28;20200;-61
2021/08/18 11:21:17;;;;;;;1.70;0.43;;;;;;;21.50;46.79;98940.53;5027576;28;20028;-62
2021/08/18 11:23:49;;;;;;;1.17;0.47;;;;;;;21.40;46.85;98948.50;5015311;28;20021;-62
2021/08/18 11:26:17;;;;;;;0.88;0.32;;;;;;;21.44;46.18;98949.69;5021098;28;20040;-61
2021/08/18 11:28:51;;;;;;;1.35;0.30;;;;;;;21.43;46.12;98948.03;5017143;28;20104;-59
2021/08/18 11:31:45;;;;;;;1.15;0.30;;;;;;;21.45;46.20;98951.34;5031923;28;20041;-59
2021/08/18 11:34:38;;;;;;;1.63;0.40;;;;;;;21.45;46.13;98954.09;5021202;28;20029;-61
2021/08/18 11:37:08;;;;;;;0.63;0.20;;;;;;;21.38;46.95;98961.56;5023800;28;20590;-62
2021/08/18 11:39:37;;;;;;;0.65;0.20;;;;;;;21.46;46.90;98974.88;5018734;28;20206;-61
2021/08/18 11:42:20;;;;;;;1.00;0.35;;;;;;;21.44;46.63;98972.38;5025112;28;20065;-61
2021/08/18 11:44:58;;;;;;;1.20;0.20;;;;;;;21.48;47.54;98973.56;5033202;28;20517;-61